sensor_id;sensor_type;location;lat;lon;timestamp;pressure;altitude;pressure_sealevel;temperature;humidity
29385;BME280;16367;48.736;9.218;2023-12-29T00:08:37;-23444.69;;;8.74;100.00
29385;BME280;16367;48.736;9.218;2023-12-29T00:10:38;-23446.59;;;8.80;100.00
29385;BME280;16367;48.736;9.218;2023-12-29T00:12:39;-23444.38;;;8.73;100.00
29385;BME280;16367;48.736;9.218;2023-12-29T00:14:41;-23442.31;;;8.66;100.00
29385;BME280;16367;48.736;9.218;2023-12-29T00:16:43;-23444.38;;;8.73;100.00
29385;BME280;16367;48.736;9.218;2023-12-29T00:18:45;-23445.47;;;8.76;100.00
29385;BME280;16367;48.736;9.218;2023-12-29T00:20:47;-23447.72;;;8.83;100.00
29385;BME280;16367;48.736;9.218;2023-12-29T00:22:48;-23446.91;;;8.81;100.00
29385;BME280;16367;48.736;9.218;2023-12-29T00:24:50;-23446.91;;;8.81;100.00
29385;BME280;16367;48.736;9.218;2023-12-29T00:30:17;-23445.00;;;8.75;100.00
29385;BME280;16367;48.736;9.218;2023-12-29T00:32:20;-23446.91;;;8.81;100.00
29385;BME280;16367;48.736;9.218;2023-12-29T00:34:22;-23447.06;;;8.81;100.00
29385;BME280;16367;48.736;9.218;2023-12-29T00:36:24;-23446.91;;;8.81;100.00
29385;BME280;16367;48.736;9.218;2023-12-29T00:38:26;-23446.13;;;8.78;100.00
29385;BME280;16367;48.736;9.218;2023-12-29T00:40:28;-23444.38;;;8.73;100.00
29385;BME280;16367;48.736;9.218;2023-12-29T00:42:29;-23440.88;;;8.62;100.00
29385;BME280;16367;48.736;9.218;2023-12-29T00:44:31;-23439.94;;;8.59;100.00
29385;BME280;16367;48.736;9.218;2023-12-29T00:46:33;-23439.28;;;8.57;100.00
29385;BME280;16367;48.736;9.218;2023-12-29T00:51:13;-23438.19;;;8.53;100.00
29385;BME280;16367;48.736;9.218;2023-12-29T00:53:15;-23440.56;;;8.61;100.00
29385;BME280;16367;48.736;9.218;2023-12-29T00:55:16;-23441.84;;;8.65;100.00
29385;BME280;16367;48.736;9.218;2023-12-29T00:57:18;-23443.09;;;8.69;100.00
29385;BME280;16367;48.736;9.218;2023-12-29T00:59:19;-23443.75;;;8.71;100.00
29385;BME280;16367;48.736;9.218;2023-12-29T01:01:21;-23444.38;;;8.73;100.00
29385;BME280;16367;48.736;9.218;2023-12-29T01:03:22;-23444.38;;;8.73;100.00
29385;BME280;16367;48.736;9.218;2023-12-29T01:05:27;-23445.16;;;8.75;100.00
29385;BME280;16367;48.736;9.218;2023-12-29T01:07:29;-23446.13;;;8.78;100.00
29385;BME280;16367;48.736;9.218;2023-12-29T01:13:59;-23451.66;;;8.96;100.00
29385;BME280;16367;48.736;9.218;2023-12-29T01:16:00;-23450.56;;;8.92;100.00
29385;BME280;16367;48.736;9.218;2023-12-29T01:18:01;-23449.78;;;8.90;100.00
29385;BME280;16367;48.736;9.218;2023-12-29T01:20:04;-23453.09;;;9.00;100.00
29385;BME280;16367;48.736;9.218;2023-12-29T01:22:05;-23453.91;;;9.03;100.00
29385;BME280;16367;48.736;9.218;2023-12-29T01:24:07;-23454.53;;;9.05;100.00
29385;BME280;16367;48.736;9.218;2023-12-29T01:26:08;-23455.78;;;9.09;100.00
29385;BME280;16367;48.736;9.218;2023-12-29T01:28:10;-23453.56;;;9.02;100.00
29385;BME280;16367;48.736;9.218;2023-12-29T01:30:12;-23453.09;;;9.00;100.00
29385;BME280;16367;48.736;9.218;2023-12-29T01:36:26;-23446.28;;;8.79;100.00
29385;BME280;16367;48.736;9.218;2023-12-29T01:38:28;-23445.81;;;8.77;100.00
29385;BME280;16367;48.736;9.218;2023-12-29T01:40:29;-23444.84;;;8.74;100.00
29385;BME280;16367;48.736;9.218;2023-12-29T01:42:31;-23444.69;;;8.74;100.00
29385;BME280;16367;48.736;9.218;2023-12-29T01:44:32;-23445.97;;;8.78;100.00
29385;BME280;16367;48.736;9.218;2023-12-29T01:46:34;-23446.91;;;8.81;100.00
29385;BME280;16367;48.736;9.218;2023-12-29T01:48:35;-23448.19;;;8.85;100.00
29385;BME280;16367;48.736;9.218;2023-12-29T01:50:37;-23447.88;;;8.84;100.00
29385;BME280;16367;48.736;9.218;2023-12-29T01:52:43;-23447.53;;;8.83;100.00
29385;BME280;16367;48.736;9.218;2023-12-29T01:58:59;-23449.59;;;8.89;100.00
29385;BME280;16367;48.736;9.218;2023-12-29T02:01:12;-23450.09;;;8.91;100.00
29385;BME280;16367;48.736;9.218;2023-12-29T02:03:15;-23449.78;;;8.90;100.00
29385;BME280;16367;48.736;9.218;2023-12-29T02:05:17;-23452.78;;;8.99;100.00
29385;BME280;16367;48.736;9.218;2023-12-29T02:07:18;-23452.00;;;8.97;100.00
29385;BME280;16367;48.736;9.218;2023-12-29T02:09:21;-23451.03;;;8.94;100.00
29385;BME280;16367;48.736;9.218;2023-12-29T02:11:22;-23449.94;;;8.90;100.00
29385;BME280;16367;48.736;9.218;2023-12-29T02:13:23;-23452.00;;;8.97;100.00
29385;BME280;16367;48.736;9.218;2023-12-29T02:15:25;-23450.72;;;8.93;100.00
29385;BME280;16367;48.736;9.218;2023-12-29T02:19:40;-23451.03;;;8.94;100.00
29385;BME280;16367;48.736;9.218;2023-12-29T02:21:43;-23451.84;;;8.96;100.00
29385;BME280;16367;48.736;9.218;2023-12-29T02:23:44;-23452.31;;;8.98;100.00
29385;BME280;16367;48.736;9.218;2023-12-29T02:25:46;-23453.09;;;9.00;100.00
29385;BME280;16367;48.736;9.218;2023-12-29T02:27:52;-23451.34;;;8.95;100.00
29385;BME280;16367;48.736;9.218;2023-12-29T02:30:06;-23450.09;;;8.91;100.00
29385;BME280;16367;48.736;9.218;2023-12-29T02:32:11;-23449.44;;;8.89;100.00
29385;BME280;16367;48.736;9.218;2023-12-29T02:34:18;-23449.44;;;8.89;100.00
29385;BME280;16367;48.736;9.218;2023-12-29T02:36:21;-23449.59;;;8.89;100.00
29385;BME280;16367;48.736;9.218;2023-12-29T02:42:36;-23450.72;;;8.93;100.00
29385;BME280;16367;48.736;9.218;2023-12-29T02:44:37;-23450.09;;;8.91;100.00
29385;BME280;16367;48.736;9.218;2023-12-29T02:46:39;-23448.97;;;8.87;100.00
29385;BME280;16367;48.736;9.218;2023-12-29T02:48:41;-23448.97;;;8.87;100.00
29385;BME280;16367;48.736;9.218;2023-12-29T02:50:43;-23448.97;;;8.87;100.00
29385;BME280;16367;48.736;9.218;2023-12-29T02:52:44;-23448.50;;;8.86;100.00
29385;BME280;16367;48.736;9.218;2023-12-29T02:54:46;-23447.38;;;8.82;100.00
29385;BME280;16367;48.736;9.218;2023-12-29T02:56:47;-23446.59;;;8.80;100.00
29385;BME280;16367;48.736;9.218;2023-12-29T02:58:49;-23446.13;;;8.78;100.00
29385;BME280;16367;48.736;9.218;2023-12-29T03:05:06;-23445.66;;;8.77;100.00
29385;BME280;16367;48.736;9.218;2023-12-29T03:07:09;-23445.66;;;8.77;100.00
29385;BME280;16367;48.736;9.218;2023-12-29T03:09:10;-23444.06;;;8.72;100.00
29385;BME280;16367;48.736;9.218;2023-12-29T03:11:12;-23444.22;;;8.72;100.00
29385;BME280;16367;48.736;9.218;2023-12-29T03:13:13;-23444.38;;;8.73;100.00
29385;BME280;16367;48.736;9.218;2023-12-29T03:15:15;-23442.47;;;8.67;100.00
29385;BME280;16367;48.736;9.218;2023-12-29T03:17:16;-23443.59;;;8.70;100.00
29385;BME280;16367;48.736;9.218;2023-12-29T03:19:18;-23444.53;;;8.73;100.00
29385;BME280;16367;48.736;9.218;2023-12-29T03:21:20;-23443.91;;;8.71;100.00
29385;BME280;16367;48.736;9.218;2023-12-29T03:29:31;-23440.41;;;8.60;100.00
29385;BME280;16367;48.736;9.218;2023-12-29T03:31:33;-23440.88;;;8.62;100.00
29385;BME280;16367;48.736;9.218;2023-12-29T03:33:34;-23439.94;;;8.59;100.00
29385;BME280;16367;48.736;9.218;2023-12-29T03:35:36;-23441.84;;;8.65;100.00
29385;BME280;16367;48.736;9.218;2023-12-29T03:37:38;-23440.25;;;8.60;100.00
29385;BME280;16367;48.736;9.218;2023-12-29T03:39:39;-23441.53;;;8.64;100.00
29385;BME280;16367;48.736;9.218;2023-12-29T03:41:40;-23440.88;;;8.62;100.00
29385;BME280;16367;48.736;9.218;2023-12-29T03:43:42;-23441.53;;;8.64;100.00
29385;BME280;16367;48.736;9.218;2023-12-29T03:45:45;-23442.47;;;8.67;100.00
29385;BME280;16367;48.736;9.218;2023-12-29T03:54:01;-23438.50;;;8.54;100.00
29385;BME280;16367;48.736;9.218;2023-12-29T03:56:04;-23437.06;;;8.50;100.00
29385;BME280;16367;48.736;9.218;2023-12-29T03:58:05;-23436.13;;;8.47;100.00
29385;BME280;16367;48.736;9.218;2023-12-29T04:00:11;-23434.84;;;8.43;100.00
29385;BME280;16367;48.736;9.218;2023-12-29T04:02:13;-23434.38;;;8.41;100.00
29385;BME280;16367;48.736;9.218;2023-12-29T04:04:14;-23433.75;;;8.39;100.00
29385;BME280;16367;48.736;9.218;2023-12-29T04:06:15;-23433.75;;;8.39;100.00
29385;BME280;16367;48.736;9.218;2023-12-29T04:08:17;-23432.63;;;8.36;100.00
29385;BME280;16367;48.736;9.218;2023-12-29T04:10:19;-23432.63;;;8.36;100.00
29385;BME280;16367;48.736;9.218;2023-12-29T04:16:36;-23430.41;;;8.29;100.00
29385;BME280;16367;48.736;9.218;2023-12-29T04:18:38;-23430.25;;;8.28;100.00
29385;BME280;16367;48.736;9.218;2023-12-29T04:20:40;-23428.66;;;8.23;100.00
29385;BME280;16367;48.736;9.218;2023-12-29T04:22:41;-23428.66;;;8.23;100.00
29385;BME280;16367;48.736;9.218;2023-12-29T04:24:43;-23428.03;;;8.21;100.00
29385;BME280;16367;48.736;9.218;2023-12-29T04:26:44;-23426.91;;;8.17;100.00
29385;BME280;16367;48.736;9.218;2023-12-29T04:28:46;-23426.44;;;8.16;100.00
29385;BME280;16367;48.736;9.218;2023-12-29T04:30:47;-23427.53;;;8.19;100.00
29385;BME280;16367;48.736;9.218;2023-12-29T04:32:49;-23427.72;;;8.20;100.00
29385;BME280;16367;48.736;9.218;2023-12-29T04:37:03;-23429.78;;;8.27;100.00
29385;BME280;16367;48.736;9.218;2023-12-29T04:39:05;-23431.03;;;8.31;100.00
29385;BME280;16367;48.736;9.218;2023-12-29T04:41:11;-23431.53;;;8.32;100.00
29385;BME280;16367;48.736;9.218;2023-12-29T04:43:13;-23431.84;;;8.33;100.00
29385;BME280;16367;48.736;9.218;2023-12-29T04:45:15;-23429.94;;;8.27;100.00
29385;BME280;16367;48.736;9.218;2023-12-29T04:47:16;-23428.50;;;8.22;100.00
29385;BME280;16367;48.736;9.218;2023-12-29T04:49:18;-23426.28;;;8.15;100.00
29385;BME280;16367;48.736;9.218;2023-12-29T04:51:19;-23423.72;;;8.07;100.00
29385;BME280;16367;48.736;9.218;2023-12-29T04:53:22;-23250.00;;;8.03;100.00
29385;BME280;16367;48.736;9.218;2023-12-29T04:56:45;-22460.06;;;8.10;100.00
29385;BME280;16367;48.736;9.218;2023-12-29T04:58:46;-21950.81;;;8.09;100.00
29385;BME280;16367;48.736;9.218;2023-12-29T05:00:48;-22266.59;;;8.08;100.00
29385;BME280;16367;48.736;9.218;2023-12-29T05:02:49;-21737.84;;;8.09;100.00
29385;BME280;16367;48.736;9.218;2023-12-29T05:04:51;-21400.16;;;8.12;100.00
29385;BME280;16367;48.736;9.218;2023-12-29T05:06:53;-20979.41;;;8.05;100.00
29385;BME280;16367;48.736;9.218;2023-12-29T05:08:54;-20305.91;;;8.00;100.00
29385;BME280;16367;48.736;9.218;2023-12-29T05:10:55;-18523.22;;;8.04;100.00
29385;BME280;16367;48.736;9.218;2023-12-29T05:16:28;-19827.19;;;8.11;100.00
29385;BME280;16367;48.736;9.218;2023-12-29T05:18:30;-19520.34;;;8.08;100.00
29385;BME280;16367;48.736;9.218;2023-12-29T05:20:31;-19563.63;;;8.11;100.00
29385;BME280;16367;48.736;9.218;2023-12-29T05:22:33;-19303.81;;;8.15;100.00
29385;BME280;16367;48.736;9.218;2023-12-29T05:24:34;-20919.19;;;8.14;100.00
29385;BME280;16367;48.736;9.218;2023-12-29T05:26:35;-20988.16;;;8.19;100.00
29385;BME280;16367;48.736;9.218;2023-12-29T05:28:36;-19079.59;;;8.12;100.00
29385;BME280;16367;48.736;9.218;2023-12-29T05:30:38;-16133.81;;;8.18;100.00
29385;BME280;16367;48.736;9.218;2023-12-29T05:32:40;-17860.31;;;8.25;100.00
29385;BME280;16367;48.736;9.218;2023-12-29T05:40:40;6807.69;;;8.07;100.00
29385;BME280;16367;48.736;9.218;2023-12-29T05:42:41;11677.31;;;8.02;100.00
29385;BME280;16367;48.736;9.218;2023-12-29T05:44:43;14327.03;;;8.05;100.00
29385;BME280;16367;48.736;9.218;2023-12-29T05:46:46;15631.63;;;8.00;100.00
29385;BME280;16367;48.736;9.218;2023-12-29T05:48:47;17698.69;;;7.95;100.00
29385;BME280;16367;48.736;9.218;2023-12-29T05:50:49;18701.78;;;7.95;100.00
29385;BME280;16367;48.736;9.218;2023-12-29T05:52:50;18491.88;;;7.96;100.00
29385;BME280;16367;48.736;9.218;2023-12-29T05:54:52;19251.19;;;7.94;100.00
29385;BME280;16367;48.736;9.218;2023-12-29T05:56:54;19654.84;;;7.96;100.00
29385;BME280;16367;48.736;9.218;2023-12-29T06:05:11;14459.81;;;7.92;100.00
29385;BME280;16367;48.736;9.218;2023-12-29T06:07:12;13941.38;;;7.93;100.00
29385;BME280;16367;48.736;9.218;2023-12-29T06:09:14;12239.47;;;7.95;100.00
29385;BME280;16367;48.736;9.218;2023-12-29T06:11:15;12520.63;;;7.97;100.00
29385;BME280;16367;48.736;9.218;2023-12-29T06:13:17;11243.13;;;7.95;100.00
29385;BME280;16367;48.736;9.218;2023-12-29T06:15:18;11583.47;;;8.01;100.00
29385;BME280;16367;48.736;9.218;2023-12-29T06:17:21;11626.22;;;8.00;100.00
29385;BME280;16367;48.736;9.218;2023-12-29T06:19:22;12274.59;;;8.04;100.00
29385;BME280;16367;48.736;9.218;2023-12-29T06:21:24;11716.25;;;8.06;100.00
29385;BME280;16367;48.736;9.218;2023-12-29T06:29:40;15851.25;;;8.22;100.00
29385;BME280;16367;48.736;9.218;2023-12-29T06:31:42;15962.03;;;8.20;100.00
29385;BME280;16367;48.736;9.218;2023-12-29T06:33:44;19791.25;;;8.15;100.00
29385;BME280;16367;48.736;9.218;2023-12-29T06:35:46;21943.97;;;8.09;100.00
29385;BME280;16367;48.736;9.218;2023-12-29T06:37:47;23956.97;;;8.06;100.00
29385;BME280;16367;48.736;9.218;2023-12-29T06:39:49;24703.69;;;8.08;100.00
29385;BME280;16367;48.736;9.218;2023-12-29T06:41:51;24765.53;;;8.10;100.00
29385;BME280;16367;48.736;9.218;2023-12-29T06:43:52;24352.34;;;8.16;100.00
29385;BME280;16367;48.736;9.218;2023-12-29T06:45:54;23342.16;;;8.16;100.00
29385;BME280;16367;48.736;9.218;2023-12-29T06:51:35;19736.84;;;8.18;100.00
29385;BME280;16367;48.736;9.218;2023-12-29T06:53:36;17888.56;;;8.16;100.00
29385;BME280;16367;48.736;9.218;2023-12-29T06:55:39;19377.75;;;8.07;100.00
29385;BME280;16367;48.736;9.218;2023-12-29T06:57:40;21153.91;;;8.05;100.00
29385;BME280;16367;48.736;9.218;2023-12-29T06:59:42;21652.56;;;8.03;100.00
29385;BME280;16367;48.736;9.218;2023-12-29T07:01:43;20633.78;;;8.04;100.00
29385;BME280;16367;48.736;9.218;2023-12-29T07:03:45;20673.94;;;8.03;100.00
29385;BME280;16367;48.736;9.218;2023-12-29T07:05:46;20564.41;;;8.08;100.00
29385;BME280;16367;48.736;9.218;2023-12-29T07:07:48;19690.47;;;8.10;100.00
29385;BME280;16367;48.736;9.218;2023-12-29T07:14:04;14006.31;;;8.16;100.00
29385;BME280;16367;48.736;9.218;2023-12-29T07:16:06;12432.25;;;8.16;100.00
29385;BME280;16367;48.736;9.218;2023-12-29T07:18:07;12623.38;;;8.21;100.00
29385;BME280;16367;48.736;9.218;2023-12-29T07:20:09;15269.75;;;8.17;100.00
29385;BME280;16367;48.736;9.218;2023-12-29T07:22:12;12059.50;;;8.23;100.00
29385;BME280;16367;48.736;9.218;2023-12-29T07:24:13;9955.78;;;8.27;100.00
29385;BME280;16367;48.736;9.218;2023-12-29T07:26:15;9510.03;;;8.23;100.00
29385;BME280;16367;48.736;9.218;2023-12-29T07:28:16;9830.13;;;8.30;100.00
29385;BME280;16367;48.736;9.218;2023-12-29T07:30:19;6681.22;;;8.36;100.00
29385;BME280;16367;48.736;9.218;2023-12-29T07:36:38;7196.41;;;8.34;100.00
29385;BME280;16367;48.736;9.218;2023-12-29T07:38:39;6877.00;;;8.28;100.00
29385;BME280;16367;48.736;9.218;2023-12-29T07:40:40;7655.59;;;8.29;100.00
29385;BME280;16367;48.736;9.218;2023-12-29T07:42:42;5918.06;;;8.36;100.00
29385;BME280;16367;48.736;9.218;2023-12-29T07:44:45;5063.50;;;8.31;100.00
29385;BME280;16367;48.736;9.218;2023-12-29T07:46:46;4743.84;;;8.39;100.00
29385;BME280;16367;48.736;9.218;2023-12-29T07:48:48;2814.81;;;8.43;100.00
29385;BME280;16367;48.736;9.218;2023-12-29T07:50:50;5425.56;;;8.37;100.00
29385;BME280;16367;48.736;9.218;2023-12-29T07:52:52;3094.50;;;8.38;100.00
29385;BME280;16367;48.736;9.218;2023-12-29T07:58:29;4508.78;;;8.38;100.00
29385;BME280;16367;48.736;9.218;2023-12-29T08:00:31;5807.84;;;8.42;100.00
29385;BME280;16367;48.736;9.218;2023-12-29T08:02:32;7320.63;;;8.36;100.00
29385;BME280;16367;48.736;9.218;2023-12-29T08:04:34;6831.47;;;8.42;100.00
29385;BME280;16367;48.736;9.218;2023-12-29T08:06:37;6297.84;;;8.40;100.00
29385;BME280;16367;48.736;9.218;2023-12-29T08:08:38;6528.75;;;8.46;100.00
29385;BME280;16367;48.736;9.218;2023-12-29T08:10:40;7170.81;;;8.46;100.00
29385;BME280;16367;48.736;9.218;2023-12-29T08:12:41;7294.66;;;8.46;100.00
29385;BME280;16367;48.736;9.218;2023-12-29T08:14:44;6334.31;;;8.47;100.00
29385;BME280;16367;48.736;9.218;2023-12-29T08:20:59;6704.28;;;8.52;100.00
29385;BME280;16367;48.736;9.218;2023-12-29T08:23:02;6203.81;;;8.52;100.00
29385;BME280;16367;48.736;9.218;2023-12-29T08:25:04;8517.72;;;8.55;100.00
29385;BME280;16367;48.736;9.218;2023-12-29T08:27:05;9213.28;;;8.55;100.00
29385;BME280;16367;48.736;9.218;2023-12-29T08:29:07;10814.63;;;8.64;100.00
29385;BME280;16367;48.736;9.218;2023-12-29T08:31:08;9097.41;;;8.81;100.00
29385;BME280;16367;48.736;9.218;2023-12-29T08:33:10;4241.91;;;9.01;100.00
29385;BME280;16367;48.736;9.218;2023-12-29T08:35:13;-1003.66;;;8.93;100.00
29385;BME280;16367;48.736;9.218;2023-12-29T08:37:15;-2485.69;;;8.75;100.00
29385;BME280;16367;48.736;9.218;2023-12-29T08:41:34;735.81;;;8.89;100.00
29385;BME280;16367;48.736;9.218;2023-12-29T08:43:36;1166.94;;;8.80;100.00
29385;BME280;16367;48.736;9.218;2023-12-29T08:45:37;-428.47;;;8.85;100.00
29385;BME280;16367;48.736;9.218;2023-12-29T08:47:39;-297.78;;;8.75;100.00
29385;BME280;16367;48.736;9.218;2023-12-29T08:49:40;3055.06;;;8.68;100.00
29385;BME280;16367;48.736;9.218;2023-12-29T08:51:42;5254.88;;;8.78;100.00
29385;BME280;16367;48.736;9.218;2023-12-29T08:53:43;5950.13;;;8.78;100.00
29385;BME280;16367;48.736;9.218;2023-12-29T08:55:45;-107.78;;;8.86;100.00
29385;BME280;16367;48.736;9.218;2023-12-29T08:57:46;-1536.50;;;8.88;100.00
29385;BME280;16367;48.736;9.218;2023-12-29T09:03:16;-4049.53;;;8.89;100.00
29385;BME280;16367;48.736;9.218;2023-12-29T09:05:18;-7221.38;;;8.90;100.00
29385;BME280;16367;48.736;9.218;2023-12-29T09:07:19;-11924.66;;;8.96;100.00
29385;BME280;16367;48.736;9.218;2023-12-29T09:09:20;-16470.59;;;8.94;100.00
29385;BME280;16367;48.736;9.218;2023-12-29T09:11:22;-17690.53;;;8.97;100.00
29385;BME280;16367;48.736;9.218;2023-12-29T09:13:23;-20704.38;;;9.01;100.00
29385;BME280;16367;48.736;9.218;2023-12-29T09:15:27;-22742.19;;;9.05;100.00
29385;BME280;16367;48.736;9.218;2023-12-29T09:17:28;-23229.53;;;9.06;100.00
29385;BME280;16367;48.736;9.218;2023-12-29T09:19:30;-23455.47;;;9.08;100.00
29385;BME280;16367;48.736;9.218;2023-12-29T09:23:53;-23317.88;;;9.16;100.00
29385;BME280;16367;48.736;9.218;2023-12-29T09:25:55;-23462.31;;;9.30;100.00
29385;BME280;16367;48.736;9.218;2023-12-29T09:27:56;-23464.69;;;9.37;100.00
29385;BME280;16367;48.736;9.218;2023-12-29T09:29:58;-23465.78;;;9.41;100.00
29385;BME280;16367;48.736;9.218;2023-12-29T09:31:59;-23467.22;;;9.45;100.00
29385;BME280;16367;48.736;9.218;2023-12-29T09:34:00;-23468.00;;;9.48;100.00
29385;BME280;16367;48.736;9.218;2023-12-29T09:36:02;-23468.31;;;9.49;100.00
29385;BME280;16367;48.736;9.218;2023-12-29T09:38:03;-23467.06;;;9.45;100.00
29385;BME280;16367;48.736;9.218;2023-12-29T09:40:08;-23461.19;;;9.26;100.00
29385;BME280;16367;48.736;9.218;2023-12-29T09:42:16;-23461.81;;;9.28;100.00
29385;BME280;16367;48.736;9.218;2023-12-29T09:44:21;-23461.81;;;9.28;100.00
29385;BME280;16367;48.736;9.218;2023-12-29T09:52:36;-23465.00;;;9.38;100.00
29385;BME280;16367;48.736;9.218;2023-12-29T09:54:39;-23464.19;;;9.36;100.00
29385;BME280;16367;48.736;9.218;2023-12-29T09:56:41;-23464.53;;;9.37;100.00
29385;BME280;16367;48.736;9.218;2023-12-29T09:58:46;-23468.50;;;9.49;100.00
29385;BME280;16367;48.736;9.218;2023-12-29T10:00:49;-23464.69;;;9.37;100.00
29385;BME280;16367;48.736;9.218;2023-12-29T10:02:51;-23462.78;;;9.31;100.00
29385;BME280;16367;48.736;9.218;2023-12-29T10:04:53;-23463.09;;;9.32;100.00
29385;BME280;16367;48.736;9.218;2023-12-29T10:06:57;-23462.47;;;9.30;100.00
29385;BME280;16367;48.736;9.218;2023-12-29T10:09:02;-23462.63;;;9.31;100.00
29385;BME280;16367;48.736;9.218;2023-12-29T10:14:23;-23464.03;;;9.35;100.00
29385;BME280;16367;48.736;9.218;2023-12-29T10:16:35;-23464.69;;;9.37;100.00
29385;BME280;16367;48.736;9.218;2023-12-29T10:18:44;-23464.69;;;9.37;100.00
29385;BME280;16367;48.736;9.218;2023-12-29T10:20:53;-23466.91;;;9.44;100.00
29385;BME280;16367;48.736;9.218;2023-12-29T10:23:05;-23471.97;;;9.60;100.00
29385;BME280;16367;48.736;9.218;2023-12-29T10:25:08;-23468.00;;;9.48;100.00
29385;BME280;16367;48.736;9.218;2023-12-29T10:27:09;-23470.06;;;9.54;100.00
29385;BME280;16367;48.736;9.218;2023-12-29T10:29:12;-23474.66;;;9.69;100.00
29385;BME280;16367;48.736;9.218;2023-12-29T10:31:15;-23478.63;;;9.82;100.00
29385;BME280;16367;48.736;9.218;2023-12-29T10:37:45;-23493.06;;;10.27;100.00
29385;BME280;16367;48.736;9.218;2023-12-29T10:39:55;-23495.91;;;10.36;100.00
29385;BME280;16367;48.736;9.218;2023-12-29T10:42:03;-23500.03;;;10.49;100.00
29385;BME280;16367;48.736;9.218;2023-12-29T10:44:06;-23495.13;;;10.34;100.00
29385;BME280;16367;48.736;9.218;2023-12-29T10:46:09;-23503.69;;;10.61;100.00
29385;BME280;16367;48.736;9.218;2023-12-29T10:48:11;-23502.09;;;10.56;100.00
29385;BME280;16367;48.736;9.218;2023-12-29T10:50:12;-23503.19;;;10.60;100.00
29385;BME280;16367;48.736;9.218;2023-12-29T10:52:15;-23504.00;;;10.62;100.00
29385;BME280;16367;48.736;9.218;2023-12-29T10:54:20;-23505.09;;;10.66;100.00
29385;BME280;16367;48.736;9.218;2023-12-29T11:02:38;-23516.81;;;11.03;100.00
29385;BME280;16367;48.736;9.218;2023-12-29T11:04:40;-23520.16;;;11.13;100.00
29385;BME280;16367;48.736;9.218;2023-12-29T11:06:43;-23519.50;;;11.11;100.00
29385;BME280;16367;48.736;9.218;2023-12-29T11:08:47;-23517.28;;;11.04;100.00
29385;BME280;16367;48.736;9.218;2023-12-29T11:10:49;-23523.00;;;11.22;100.00
29385;BME280;16367;48.736;9.218;2023-12-29T11:12:51;-23518.88;;;11.09;100.00
29385;BME280;16367;48.736;9.218;2023-12-29T11:14:53;-23515.25;;;10.98;100.00
29385;BME280;16367;48.736;9.218;2023-12-29T11:16:55;-23516.66;;;11.02;100.00
29385;BME280;16367;48.736;9.218;2023-12-29T11:18:57;-23516.66;;;11.02;100.00
29385;BME280;16367;48.736;9.218;2023-12-29T11:24:04;-23516.97;;;11.03;99.59
29385;BME280;16367;48.736;9.218;2023-12-29T11:26:06;-23521.25;;;11.17;99.36
29385;BME280;16367;48.736;9.218;2023-12-29T11:28:09;-23518.88;;;11.09;97.36
29385;BME280;16367;48.736;9.218;2023-12-29T11:30:14;-23522.19;;;11.20;97.11
29385;BME280;16367;48.736;9.218;2023-12-29T11:32:19;-23520.78;;;11.15;96.28
29385;BME280;16367;48.736;9.218;2023-12-29T11:34:26;-23519.66;;;11.12;96.71
29385;BME280;16367;48.736;9.218;2023-12-29T11:36:33;-23515.06;;;10.97;96.01
29385;BME280;16367;48.736;9.218;2023-12-29T11:38:44;-23521.56;;;11.18;95.98
29385;BME280;16367;48.736;9.218;2023-12-29T11:40:52;-23516.34;;;11.01;96.01
29385;BME280;16367;48.736;9.218;2023-12-29T11:45:45;-23521.88;;;11.19;95.16
29385;BME280;16367;48.736;9.218;2023-12-29T11:47:47;-23524.72;;;11.28;95.48
29385;BME280;16367;48.736;9.218;2023-12-29T11:50:01;-23526.16;;;11.33;95.04
29385;BME280;16367;48.736;9.218;2023-12-29T11:52:03;-23525.53;;;11.31;93.83
29385;BME280;16367;48.736;9.218;2023-12-29T11:54:05;-23521.41;;;11.17;93.84
29385;BME280;16367;48.736;9.218;2023-12-29T11:56:14;-23523.94;;;11.25;94.07
29385;BME280;16367;48.736;9.218;2023-12-29T11:58:26;-23531.06;;;11.48;94.05
29385;BME280;16367;48.736;9.218;2023-12-29T12:00:42;-23530.91;;;11.48;93.32
29385;BME280;16367;48.736;9.218;2023-12-29T12:02:45;-23530.59;;;11.47;93.45
29385;BME280;16367;48.736;9.218;2023-12-29T12:13:44;-23539.16;;;11.74;92.01
29385;BME280;16367;48.736;9.218;2023-12-29T12:15:46;-23536.94;;;11.67;91.91
29385;BME280;16367;48.736;9.218;2023-12-29T12:17:50;-23531.38;;;11.49;92.32
29385;BME280;16367;48.736;9.218;2023-12-29T12:19:52;-23532.19;;;11.52;92.92
29385;BME280;16367;48.736;9.218;2023-12-29T12:21:54;-23528.69;;;11.41;92.14
29385;BME280;16367;48.736;9.218;2023-12-29T12:23:57;-23525.53;;;11.31;92.65
29385;BME280;16367;48.736;9.218;2023-12-29T12:26:01;-23529.00;;;11.42;92.61
29385;BME280;16367;48.736;9.218;2023-12-29T12:28:09;-23524.72;;;11.28;93.53
29385;BME280;16367;48.736;9.218;2023-12-29T12:35:43;-23529.34;;;11.43;92.04
29385;BME280;16367;48.736;9.218;2023-12-29T12:37:47;-23529.00;;;11.42;91.00
29385;BME280;16367;48.736;9.218;2023-12-29T12:39:48;-23535.66;;;11.63;91.20
29385;BME280;16367;48.736;9.218;2023-12-29T12:41:50;-23527.75;;;11.38;90.69
29385;BME280;16367;48.736;9.218;2023-12-29T12:43:57;-23531.06;;;11.48;90.41
29385;BME280;16367;48.736;9.218;2023-12-29T12:46:02;-23530.44;;;11.46;90.76
29385;BME280;16367;48.736;9.218;2023-12-29T12:48:12;-23536.28;;;11.65;89.88
29385;BME280;16367;48.736;9.218;2023-12-29T12:50:15;-23537.88;;;11.70;89.51
29385;BME280;16367;48.736;9.218;2023-12-29T12:52:18;-23541.03;;;11.80;89.67
29385;BME280;16367;48.736;9.218;2023-12-29T12:57:12;-23548.31;;;12.03;87.79
29385;BME280;16367;48.736;9.218;2023-12-29T12:59:14;-23548.00;;;12.02;87.71
29385;BME280;16367;48.736;9.218;2023-12-29T13:01:17;-23539.94;;;11.76;87.44
29385;BME280;16367;48.736;9.218;2023-12-29T13:03:19;-23537.72;;;11.69;88.03
29385;BME280;16367;48.736;9.218;2023-12-29T13:05:20;-23537.56;;;11.69;87.97
29385;BME280;16367;48.736;9.218;2023-12-29T13:07:23;-23538.50;;;11.72;87.83
29385;BME280;16367;48.736;9.218;2023-12-29T13:09:25;-23544.22;;;11.90;86.90
29385;BME280;16367;48.736;9.218;2023-12-29T13:11:26;-23549.28;;;12.06;85.77
29385;BME280;16367;48.736;9.218;2023-12-29T13:13:36;-23545.78;;;11.95;85.78